createdAt,value
2018-03-25T00:00:57.195Z,61.97
2018-03-25T00:03:25.043Z,62.57
2018-03-25T00:05:52.620Z,59.07
2018-03-25T00:08:20.195Z,64.17
2018-03-25T00:10:48.056Z,60.60
2018-03-25T00:13:15.629Z,66.93
2018-03-25T00:15:43.199Z,65.70
2018-03-25T00:18:10.808Z,64.33
2018-03-25T00:20:38.378Z,61.30
2018-03-25T00:23:06.059Z,64.87
2018-03-25T00:25:33.662Z,62.93
2018-03-25T00:28:02.150Z,57.83
2018-03-25T00:30:30.487Z,59.80
2018-03-25T00:32:58.090Z,70.13
2018-03-25T00:35:26.422Z,63.77
2018-03-25T00:37:54.001Z,63.70
2018-03-25T00:40:22.401Z,59.43
2018-03-25T00:42:50.890Z,58.80
2018-03-25T00:45:18.409Z,58.27
2018-03-25T00:47:46.011Z,54.37
2018-03-25T00:50:13.713Z,60.83
2018-03-25T00:52:41.357Z,61.33
2018-03-25T00:55:08.966Z,56.97
2018-03-25T00:57:36.552Z,63.07
2018-03-25T01:00:04.123Z,61.57
2018-03-25T01:02:31.732Z,67.93
2018-03-25T01:04:59.313Z,65.60
2018-03-25T01:07:27.640Z,53.57
2018-03-25T01:09:55.239Z,59.63
2018-03-25T01:12:22.786Z,63.90
2018-03-25T01:14:50.383Z,63.13
2018-03-25T01:17:18.319Z,67.47
2018-03-25T01:19:45.885Z,68.63
2018-03-25T01:22:14.232Z,66.40
2018-03-25T01:24:41.835Z,66.57
2018-03-25T01:27:10.171Z,69.20
2018-03-25T01:29:37.828Z,68.10
2018-03-25T01:32:05.804Z,61.50
2018-03-25T01:34:33.375Z,63.17
2018-03-25T01:37:01.714Z,62.83
2018-03-25T01:39:30.234Z,68.30
2018-03-25T01:41:58.571Z,63.07
2018-03-25T01:44:26.156Z,65.40
2018-03-25T01:46:54.028Z,73.03
2018-03-25T01:49:21.598Z,61.03
2018-03-25T01:51:49.181Z,68.80
2018-03-25T01:54:17.561Z,67.70
2018-03-25T01:56:45.881Z,62.37
2018-03-25T01:59:13.440Z,63.67
2018-03-25T02:01:41.052Z,60.20
2018-03-25T02:04:09.576Z,62.43
2018-03-25T02:06:37.149Z,59.47
2018-03-25T02:09:04.830Z,71.20
2018-03-25T02:11:33.910Z,69.03
2018-03-25T02:14:01.579Z,63.83
2018-03-25T02:16:29.159Z,61.60
2018-03-25T02:18:57.511Z,72.07
2018-03-25T02:21:25.074Z,62.07
2018-03-25T02:23:52.640Z,98.27
2018-03-25T02:26:20.207Z,82.10
2018-03-25T02:28:47.787Z,78.40
2018-03-25T02:31:16.124Z,71.10
2018-03-25T02:33:43.713Z,68.17
2018-03-25T02:36:12.062Z,75.83
2018-03-25T02:38:39.638Z,80.07
2018-03-25T02:41:07.339Z,76.87
2018-03-25T02:43:34.930Z,75.93
2018-03-25T02:46:02.497Z,69.03
2018-03-25T02:48:30.206Z,70.60
2018-03-25T02:50:57.807Z,63.83
2018-03-25T02:53:25.391Z,65.93
2018-03-25T02:55:53.255Z,71.27
2018-03-25T02:58:22.341Z,71.17
2018-03-25T03:00:49.918Z,65.57
2018-03-25T03:03:18.318Z,61.23
2018-03-25T03:05:46.249Z,64.70
2018-03-25T03:08:13.808Z,58.93
2018-03-25T03:10:41.386Z,64.87
2018-03-25T03:13:09.765Z,62.10
2018-03-25T03:15:38.121Z,60.80
2018-03-25T03:18:05.814Z,65.30
2018-03-25T03:20:34.180Z,64.93
2018-03-25T03:23:02.534Z,56.50
2018-03-25T03:25:31.143Z,56.90
2018-03-25T03:27:59.472Z,65.00
2018-03-25T03:30:27.054Z,66.70
2018-03-25T03:32:54.672Z,72.07
2018-03-25T03:35:22.314Z,69.50
2018-03-25T03:37:50.647Z,61.77
2018-03-25T03:40:18.237Z,59.43
2018-03-25T03:42:46.588Z,63.30
2018-03-25T03:45:14.165Z,60.37
2018-03-25T03:47:41.863Z,61.53
2018-03-25T03:50:09.461Z,67.10
2018-03-25T03:52:37.024Z,66.20
2018-03-25T03:55:04.917Z,71.33
2018-03-25T03:57:33.337Z,62.87
2018-03-25T04:00:00.919Z,68.50
2018-03-25T04:02:28.546Z,66.23
2018-03-25T04:04:56.117Z,65.93
2018-03-25T04:07:23.674Z,63.83
2018-03-25T04:09:51.270Z,70.20
2018-03-25T04:12:18.856Z,70.27
2018-03-25T04:14:47.219Z,69.70
2018-03-25T04:17:15.186Z,67.57
2018-03-25T04:19:43.529Z,66.60
2018-03-25T04:22:11.107Z,65.07
2018-03-25T04:24:38.727Z,63.00
2018-03-25T04:27:06.304Z,65.77
2018-03-25T04:29:33.880Z,60.90
2018-03-25T04:32:01.479Z,62.03
2018-03-25T04:34:29.804Z,60.80
2018-03-25T04:36:57.419Z,65.87
2018-03-25T04:39:25.797Z,61.70
2018-03-25T04:41:53.380Z,72.07
2018-03-25T04:44:20.958Z,66.23
2018-03-25T04:46:48.563Z,64.40
2018-03-25T04:49:16.127Z,61.30
2018-03-25T04:51:44.507Z,66.43
2018-03-25T04:54:12.881Z,60.40
2018-03-25T04:56:41.202Z,56.67
2018-03-25T04:59:08.777Z,56.53
2018-03-25T05:01:36.703Z,62.30
2018-03-25T05:04:04.271Z,59.97
2018-03-25T05:06:31.837Z,65.43
2018-03-25T05:08:59.475Z,60.23
2018-03-25T05:11:27.807Z,63.67
2018-03-25T05:13:55.365Z,60.40
2018-03-25T05:16:22.977Z,61.40
2018-03-25T05:18:50.540Z,71.50
2018-03-25T05:21:18.111Z,63.27
2018-03-25T05:23:45.702Z,61.33
2018-03-25T05:26:13.318Z,64.30
2018-03-25T05:28:40.909Z,61.73
2018-03-25T05:31:08.509Z,59.83
2018-03-25T05:33:36.853Z,58.30
2018-03-25T05:36:04.414Z,62.63
2018-03-25T05:38:32.063Z,63.60
2018-03-25T05:41:00.159Z,61.10
2018-03-25T05:43:29.294Z,63.17
2018-03-25T05:45:56.853Z,64.33
2018-03-25T05:48:24.440Z,73.43
2018-03-25T05:50:53.150Z,59.63
2018-03-25T05:53:20.723Z,58.93
2018-03-25T05:55:48.283Z,67.40
2018-03-25T05:58:15.895Z,60.73
2018-03-25T06:00:43.469Z,60.43
2018-03-25T06:03:11.048Z,59.20
2018-03-25T06:05:38.669Z,57.33
2018-03-25T06:08:06.440Z,67.27
2018-03-25T06:10:34.015Z,55.97
2018-03-25T06:13:01.915Z,64.73
2018-03-25T06:15:31.895Z,57.93
2018-03-25T06:17:59.588Z,63.50
2018-03-25T06:20:27.913Z,61.57
2018-03-25T06:22:55.506Z,64.00
2018-03-25T06:25:23.058Z,64.93
2018-03-25T06:27:50.668Z,61.90
2018-03-25T06:30:19.048Z,61.30
2018-03-25T06:32:47.402Z,60.27
2018-03-25T06:35:14.983Z,60.80
2018-03-25T06:37:42.588Z,64.33
2018-03-25T06:40:10.161Z,59.43
2018-03-25T06:42:37.751Z,60.87
2018-03-25T06:45:06.393Z,66.63
2018-03-25T06:47:33.972Z,60.07
2018-03-25T06:50:01.633Z,63.40
2018-03-25T06:52:29.573Z,60.83
2018-03-25T06:54:57.143Z,61.23
2018-03-25T06:57:24.719Z,51.87
2018-03-25T06:59:54.060Z,58.27
2018-03-25T07:02:21.632Z,59.50
2018-03-25T07:04:49.209Z,59.37
2018-03-25T07:07:17.112Z,66.20
2018-03-25T07:09:44.758Z,61.13
2018-03-25T07:12:12.328Z,56.50
2018-03-25T07:14:40.407Z,53.50
2018-03-25T07:17:08.766Z,60.07
2018-03-25T07:19:36.338Z,57.03
2018-03-25T07:22:03.931Z,65.03
2018-03-25T07:24:31.521Z,57.80
2018-03-25T07:26:59.077Z,57.23
2018-03-25T07:29:26.993Z,59.50
2018-03-25T07:31:55.314Z,63.57
2018-03-25T07:34:22.907Z,60.27
2018-03-25T07:36:50.533Z,55.07
2018-03-25T07:39:18.185Z,56.80
2018-03-25T07:41:45.759Z,59.50
2018-03-25T07:44:13.377Z,60.57
2018-03-25T07:46:41.721Z,59.20
2018-03-25T07:49:09.303Z,59.77
2018-03-25T07:51:38.291Z,57.87
2018-03-25T07:54:06.620Z,59.00
2018-03-25T07:56:34.191Z,64.90
2018-03-25T07:59:01.886Z,54.90
2018-03-25T08:01:29.454Z,49.47
2018-03-25T08:03:57.842Z,58.83
2018-03-25T08:06:26.460Z,55.50
2018-03-25T08:08:54.029Z,61.53
2018-03-25T08:11:21.704Z,60.37
2018-03-25T08:13:49.300Z,58.37
2018-03-25T08:16:17.631Z,55.17
2018-03-25T08:18:45.215Z,56.20
2018-03-25T08:21:12.834Z,60.53
2018-03-25T08:23:40.411Z,59.03
2018-03-25T08:26:08.230Z,52.00
2018-03-25T08:28:36.591Z,53.33
2018-03-25T08:31:04.929Z,58.23
2018-03-25T08:33:32.509Z,55.13
2018-03-25T08:36:00.121Z,56.50
2018-03-25T08:38:27.682Z,54.33
2018-03-25T08:40:55.279Z,54.27
2018-03-25T08:43:22.888Z,56.70
2018-03-25T08:45:50.567Z,52.40
2018-03-25T08:48:18.772Z,54.63
2018-03-25T08:50:46.374Z,55.30
2018-03-25T08:53:14.718Z,55.67
2018-03-25T08:55:42.324Z,60.43
2018-03-25T08:58:09.932Z,51.53
2018-03-25T09:00:37.543Z,55.97
2018-03-25T09:03:05.131Z,51.57
2018-03-25T09:05:33.023Z,55.97
2018-03-25T09:08:00.597Z,53.40
2018-03-25T09:10:28.933Z,52.80
2018-03-25T09:12:56.530Z,53.37
2018-03-25T09:15:24.878Z,50.67
2018-03-25T09:17:52.500Z,51.80
2018-03-25T09:20:20.069Z,51.27
2018-03-25T09:22:47.669Z,54.20
2018-03-25T09:25:15.995Z,50.33
2018-03-25T09:27:43.581Z,50.30
2018-03-25T09:30:11.330Z,53.03
2018-03-25T09:32:38.903Z,46.30
2018-03-25T09:35:06.469Z,58.00
2018-03-25T09:37:34.086Z,59.07
2018-03-25T09:40:01.666Z,54.50
2018-03-25T09:42:29.247Z,52.83
2018-03-25T09:44:56.900Z,50.63
2018-03-25T09:47:24.484Z,51.60
2018-03-25T09:49:52.059Z,48.93
2018-03-25T09:52:20.433Z,49.07
2018-03-25T09:54:48.056Z,51.10
2018-03-25T09:57:15.647Z,48.00
2018-03-25T09:59:44.320Z,52.57
2018-03-25T10:02:17.610Z,71.80
2018-03-25T10:04:45.604Z,49.30
2018-03-25T10:07:13.208Z,47.10
2018-03-25T10:09:40.789Z,47.40
2018-03-25T10:12:08.396Z,47.13
2018-03-25T10:14:36.760Z,48.77
2018-03-25T10:17:04.341Z,45.13
2018-03-25T10:19:31.973Z,55.93
2018-03-25T10:21:59.603Z,50.73
2018-03-25T10:24:28.053Z,47.70
2018-03-25T10:26:55.667Z,47.40
2018-03-25T10:29:23.244Z,43.67
2018-03-25T10:31:51.617Z,46.90
2018-03-25T10:34:20.002Z,41.30
2018-03-25T10:39:22.324Z,43.87
2018-03-25T10:41:49.955Z,44.30
2018-03-25T10:44:18.326Z,41.83
2018-03-25T10:46:46.698Z,44.27
2018-03-25T10:49:15.074Z,43.17
2018-03-25T10:51:43.536Z,40.80
2018-03-25T10:54:11.928Z,41.40
2018-03-25T10:56:40.268Z,40.60
2018-03-25T10:59:07.897Z,35.23
2018-03-25T11:01:35.753Z,37.83
2018-03-25T11:04:04.194Z,40.03
2018-03-25T11:06:32.228Z,36.57
2018-03-25T11:09:00.082Z,35.80
2018-03-25T11:11:27.653Z,36.13
2018-03-25T11:13:55.213Z,38.20
2018-03-25T11:16:22.830Z,32.40
2018-03-25T11:18:51.169Z,34.43
2018-03-25T11:21:18.776Z,33.70
2018-03-25T11:23:47.127Z,38.10
2018-03-25T11:26:14.711Z,37.80
2018-03-25T11:28:43.103Z,36.07
2018-03-25T11:31:10.665Z,32.27
2018-03-25T11:33:38.278Z,30.90
2018-03-25T11:36:05.887Z,36.83
2018-03-25T11:38:33.460Z,37.87
2018-03-25T11:41:01.176Z,35.93
2018-03-25T11:43:29.550Z,38.00
2018-03-25T11:45:58.628Z,41.10
2018-03-25T11:48:26.215Z,40.07
2018-03-25T11:50:54.979Z,50.00
2018-03-25T11:53:22.584Z,50.00
2018-03-25T11:55:50.166Z,41.10
2018-03-25T11:58:17.750Z,33.93
2018-03-25T12:00:45.330Z,39.70
2018-03-25T12:03:13.705Z,40.67
2018-03-25T12:05:41.303Z,40.07
2018-03-25T12:08:08.886Z,37.13
2018-03-25T12:10:36.447Z,37.07
2018-03-25T12:13:04.049Z,36.93
2018-03-25T12:15:32.376Z,35.73
2018-03-25T12:17:59.964Z,32.90
2018-03-25T12:20:27.623Z,35.30
2018-03-25T12:22:55.174Z,33.50
2018-03-25T12:25:22.738Z,32.93
2018-03-25T12:27:51.135Z,35.93
2018-03-25T12:30:19.493Z,34.37
2018-03-25T12:32:47.074Z,37.77
2018-03-25T12:35:14.689Z,41.27
2018-03-25T12:37:42.273Z,37.97
2018-03-25T12:40:09.858Z,36.40
2018-03-25T12:42:38.242Z,36.00
2018-03-25T12:45:06.577Z,33.90
2018-03-25T12:47:34.145Z,40.40
2018-03-25T12:50:01.770Z,33.77
2018-03-25T12:52:29.351Z,33.30
2018-03-25T12:54:57.374Z,33.07
2018-03-25T12:57:24.954Z,33.13
2018-03-25T12:59:52.675Z,35.20
2018-03-25T13:02:20.278Z,34.10
2018-03-25T13:04:47.887Z,36.70
2018-03-25T13:07:15.533Z,33.50
2018-03-25T13:09:43.539Z,31.23
2018-03-25T13:12:11.885Z,33.33
2018-03-25T13:14:40.988Z,32.70
2018-03-25T13:17:08.596Z,34.20
2018-03-25T13:19:36.245Z,35.93
2018-03-25T13:22:03.808Z,31.97
2018-03-25T13:24:31.413Z,35.00
2018-03-25T13:26:59.024Z,31.60
2018-03-25T13:29:26.600Z,28.23
2018-03-25T13:31:54.180Z,35.90
2018-03-25T13:34:22.739Z,31.33
2018-03-25T13:36:50.295Z,35.63
2018-03-25T13:39:17.872Z,32.07
2018-03-25T13:41:45.473Z,33.83
2018-03-25T13:44:13.051Z,34.13
2018-03-25T13:46:41.396Z,31.80
2018-03-25T13:49:09.035Z,38.20
2018-03-25T13:51:36.626Z,33.50
2018-03-25T13:54:04.240Z,32.00
2018-03-25T13:56:31.836Z,32.57
2018-03-25T13:58:59.458Z,35.87
2018-03-25T14:01:27.064Z,31.10
2018-03-25T14:03:54.677Z,34.03
2018-03-25T14:06:22.272Z,33.57
2018-03-25T14:08:49.882Z,33.37
2018-03-25T14:11:17.468Z,34.60
2018-03-25T14:13:45.841Z,32.07
2018-03-25T14:16:13.435Z,34.70
2018-03-25T14:18:41.005Z,35.80
2018-03-25T14:21:09.420Z,33.67
2018-03-25T14:23:37.164Z,32.97
2018-03-25T14:26:05.541Z,37.10
2018-03-25T14:28:33.111Z,34.57
2018-03-25T14:31:00.719Z,37.00
2018-03-25T14:33:28.319Z,36.70
2018-03-25T14:35:55.903Z,36.57
2018-03-25T14:38:23.791Z,36.50
2018-03-25T14:40:51.374Z,38.07
2018-03-25T14:43:20.642Z,40.77
2018-03-25T14:45:48.259Z,35.70
2018-03-25T14:48:16.614Z,43.83
2018-03-25T14:50:44.994Z,36.90
2018-03-25T14:53:12.873Z,42.10
2018-03-25T14:55:41.200Z,36.93
2018-03-25T14:58:08.763Z,42.77
2018-03-25T15:00:36.376Z,39.40
2018-03-25T15:03:03.940Z,44.40
2018-03-25T15:05:31.516Z,44.10
2018-03-25T15:07:59.164Z,39.30
2018-03-25T15:10:26.698Z,43.07
2018-03-25T15:12:55.042Z,42.27
2018-03-25T15:15:22.672Z,44.40
2018-03-25T15:17:50.702Z,42.40
2018-03-25T15:20:19.044Z,44.37
2018-03-25T15:22:46.621Z,43.70
2018-03-25T15:25:14.242Z,44.10
2018-03-25T15:27:41.861Z,42.27
2018-03-25T15:30:10.188Z,44.27
2018-03-25T15:32:37.801Z,44.93
2018-03-25T15:35:06.148Z,49.53
2018-03-25T15:37:33.753Z,55.13
2018-03-25T15:40:01.367Z,43.50
2018-03-25T15:42:28.946Z,49.80
2018-03-25T15:44:58.040Z,50.43
2018-03-25T15:47:25.645Z,53.10
2018-03-25T15:49:53.296Z,54.67
2018-03-25T15:52:20.891Z,49.80
2018-03-25T15:54:48.678Z,49.70
2018-03-25T15:57:16.292Z,49.80
2018-03-25T15:59:43.868Z,54.27
2018-03-25T16:02:11.484Z,54.83
2018-03-25T16:04:39.860Z,49.23
2018-03-25T16:07:08.181Z,51.37
2018-03-25T16:09:35.808Z,54.97
2018-03-25T16:12:03.370Z,43.13
2018-03-25T16:14:30.967Z,49.03
2018-03-25T16:16:58.592Z,49.60
2018-03-25T16:19:26.181Z,52.53
2018-03-25T16:21:53.825Z,49.00
2018-03-25T16:24:21.434Z,53.20
2018-03-25T16:26:49.248Z,47.90
2018-03-25T16:29:16.871Z,45.60
2018-03-25T16:31:45.241Z,49.67
2018-03-25T16:34:12.808Z,53.07
2018-03-25T16:36:41.364Z,46.17
2018-03-25T16:39:09.834Z,48.73
2018-03-25T16:41:37.389Z,46.43
2018-03-25T16:44:05.021Z,45.43
2018-03-25T16:46:32.595Z,46.90
2018-03-25T16:49:00.189Z,49.73
2018-03-25T16:51:27.813Z,48.50
2018-03-25T16:53:55.391Z,47.73
2018-03-25T16:56:22.971Z,49.70
2018-03-25T16:58:50.588Z,46.27
2018-03-25T17:01:18.157Z,46.30
2018-03-25T17:03:45.936Z,50.00
2018-03-25T17:06:13.519Z,50.33
2018-03-25T17:08:41.080Z,51.43
2018-03-25T17:11:08.682Z,51.97
2018-03-25T17:13:36.256Z,52.70
2018-03-25T17:16:03.978Z,53.37
2018-03-25T17:18:32.370Z,49.30
2018-03-25T17:21:00.636Z,49.93
2018-03-25T17:23:28.212Z,49.63
2018-03-25T17:25:55.826Z,48.13
2018-03-25T17:28:23.408Z,53.67
2018-03-25T17:30:51.831Z,50.10
2018-03-25T17:33:19.435Z,53.37
2018-03-25T17:35:47.780Z,54.47
2018-03-25T17:38:16.151Z,53.57
2018-03-25T17:40:43.750Z,55.03
2018-03-25T17:43:12.132Z,59.10
2018-03-25T17:45:40.485Z,52.20
2018-03-25T17:48:08.855Z,57.80
2018-03-25T17:50:36.479Z,60.13
2018-03-25T17:53:04.037Z,59.37
2018-03-25T17:55:31.623Z,62.37
2018-03-25T17:57:59.531Z,69.03
2018-03-25T18:00:27.862Z,68.33
2018-03-25T18:02:55.458Z,67.83
2018-03-25T18:05:23.312Z,67.97
2018-03-25T18:07:51.655Z,76.17
2018-03-25T18:10:20.057Z,85.23
2018-03-25T18:12:48.439Z,81.40
2018-03-25T18:15:16.833Z,85.97
2018-03-25T18:17:44.454Z,94.00
2018-03-25T18:20:12.058Z,92.77
2018-03-25T18:22:40.618Z,98.40
2018-03-25T18:25:08.211Z,114.60
2018-03-25T18:27:36.597Z,98.47
2018-03-25T18:30:04.182Z,94.60
2018-03-25T18:32:31.751Z,92.60
2018-03-25T18:34:59.376Z,105.60
2018-03-25T18:37:26.960Z,105.70
2018-03-25T18:39:54.590Z,121.83
2018-03-25T18:42:23.085Z,111.53
2018-03-25T18:44:50.857Z,114.17
2018-03-25T18:47:18.464Z,111.50
2018-03-25T18:49:47.561Z,113.87
2018-03-25T18:52:15.435Z,116.40
2018-03-25T18:54:43.031Z,130.00
2018-03-25T18:57:10.628Z,120.73
2018-03-25T18:59:38.231Z,116.03
2018-03-25T19:02:06.565Z,114.37
2018-03-25T19:04:34.150Z,118.17
2018-03-25T19:07:02.534Z,129.40
2018-03-25T19:09:30.877Z,123.53
2018-03-25T19:11:58.452Z,128.13
2018-03-25T19:14:26.887Z,112.90
2018-03-25T19:16:54.481Z,133.00
2018-03-25T19:19:22.060Z,131.73
2018-03-25T19:21:49.670Z,121.93
2018-03-25T19:24:17.243Z,120.33
2018-03-25T19:26:44.833Z,129.33
2018-03-25T19:29:13.325Z,132.63
2018-03-25T19:31:41.674Z,122.83
2018-03-25T19:34:09.273Z,134.33
2018-03-25T19:36:37.926Z,138.50
2018-03-25T19:39:06.249Z,126.27
2018-03-25T19:41:33.819Z,138.17
2018-03-25T19:44:01.705Z,133.63
2018-03-25T19:46:29.287Z,126.90
2018-03-25T19:48:56.867Z,141.03
2018-03-25T19:51:25.497Z,139.87
2018-03-25T19:53:53.082Z,133.37
2018-03-25T19:56:20.609Z,142.63
2018-03-25T19:58:48.482Z,145.63
2018-03-25T20:01:16.066Z,155.90
2018-03-25T20:03:43.682Z,135.50
2018-03-25T20:06:12.417Z,144.83
2018-03-25T20:08:39.984Z,148.73
2018-03-25T20:11:08.352Z,131.93
2018-03-25T20:13:35.976Z,121.50
2018-03-25T20:16:03.594Z,142.20
2018-03-25T20:18:31.952Z,151.37
2018-03-25T20:21:01.042Z,135.13
2018-03-25T20:23:29.197Z,132.13
2018-03-25T20:25:56.939Z,132.47
2018-03-25T20:28:24.513Z,133.37
2018-03-25T20:30:52.124Z,128.50
2018-03-25T20:33:20.476Z,143.40
2018-03-25T20:35:48.047Z,125.23
2018-03-25T20:38:16.007Z,138.77
2018-03-25T20:40:44.353Z,134.57
2018-03-25T20:43:11.933Z,128.00
2018-03-25T20:45:39.550Z,133.20
2018-03-25T20:48:07.137Z,147.77
2018-03-25T20:50:34.701Z,124.13
2018-03-25T20:53:02.666Z,121.47
2018-03-25T20:55:30.268Z,136.80
2018-03-25T20:57:58.610Z,133.20
2018-03-25T21:00:26.383Z,122.53
2018-03-25T21:02:53.951Z,120.10
2018-03-25T21:05:21.561Z,128.27
2018-03-25T21:07:49.132Z,126.83
2018-03-25T21:10:16.733Z,137.93
2018-03-25T21:12:45.078Z,130.20
2018-03-25T21:15:12.704Z,123.97
2018-03-25T21:17:41.519Z,136.10
2018-03-25T21:20:09.172Z,128.17
2018-03-25T21:22:37.050Z,133.33
2018-03-25T21:25:04.622Z,132.53
2018-03-25T21:27:32.189Z,126.73
2018-03-25T21:30:00.148Z,103.97
2018-03-25T21:32:27.784Z,122.93
2018-03-25T21:34:55.350Z,136.33
2018-03-25T21:37:23.768Z,121.60
2018-03-25T21:39:52.097Z,115.37
2018-03-25T21:42:19.666Z,118.33
2018-03-25T21:44:47.284Z,132.70
2018-03-25T21:47:15.633Z,119.10
2018-03-25T21:49:43.219Z,129.33
2018-03-25T21:52:11.590Z,123.90
2018-03-25T21:54:39.928Z,125.07
2018-03-25T21:57:07.509Z,130.97
2018-03-25T21:59:35.908Z,136.23
2018-03-25T22:02:04.257Z,127.37
2018-03-25T22:04:31.826Z,124.80
2018-03-25T22:07:00.450Z,120.07
2018-03-25T22:09:28.013Z,114.97
2018-03-25T22:11:55.632Z,111.23
2018-03-25T22:14:24.738Z,125.83
2018-03-25T22:16:53.101Z,112.73
2018-03-25T22:19:20.709Z,122.37
2018-03-25T22:21:48.281Z,136.27
2018-03-25T22:24:15.852Z,133.90
2018-03-25T22:26:43.759Z,127.40
2018-03-25T22:29:12.133Z,135.13
2018-03-25T22:31:40.481Z,131.40
2018-03-25T22:34:08.077Z,144.53
2018-03-25T22:36:36.402Z,132.37
2018-03-25T22:39:03.971Z,136.87
2018-03-25T22:41:31.816Z,141.20
2018-03-25T22:43:59.374Z,153.90
2018-03-25T22:46:26.956Z,157.20
2018-03-25T22:48:54.560Z,159.07
2018-03-25T22:51:22.904Z,158.77
2018-03-25T22:53:50.498Z,159.17
2018-03-25T22:56:18.867Z,159.73
2018-03-25T22:58:47.194Z,155.57
2018-03-25T23:01:14.790Z,142.80
2018-03-25T23:03:43.126Z,160.43
2018-03-25T23:06:10.710Z,148.97
2018-03-25T23:08:38.386Z,153.07
2018-03-25T23:11:06.817Z,160.17
2018-03-25T23:13:34.375Z,160.90
2018-03-25T23:16:01.937Z,162.50
2018-03-25T23:18:29.603Z,172.87
2018-03-25T23:20:57.168Z,169.03
2018-03-25T23:23:24.774Z,160.10
2018-03-25T23:25:53.439Z,160.00
2018-03-25T23:28:21.008Z,156.37
2018-03-25T23:30:49.369Z,158.63
2018-03-25T23:33:16.975Z,164.07
2018-03-25T23:35:44.548Z,159.67
2018-03-25T23:38:12.136Z,160.77
2018-03-25T23:40:39.748Z,171.77
2018-03-25T23:43:07.356Z,173.80
2018-03-25T23:45:34.949Z,170.40
2018-03-25T23:48:03.284Z,168.90
2018-03-25T23:50:30.906Z,165.00
2018-03-25T23:52:58.477Z,155.17
2018-03-25T23:55:26.063Z,167.20
2018-03-25T23:57:53.931Z,158.87
